Terminal Aerodrome Forecast
Issued by NWS Binghamton, NY

Home | Current Version | Previous Version | Text Only | Print | Product List | Glossary On
Versions: 1 2 3 4 5 6 7 8 9 10 11 12 13 14 15 16 17 18
000
FTUS41 KBGM 281100
TAFBGM
TAF
KBGM 281132Z 2812/0112 26004KT P6SM SKC
     FM010000 VRB03KT P6SM SKC
     FM010900 14005KT P6SM OVC100
     FM011000 14007KT 3SM -SN OVC025=

USA.gov is the U.S. government's official web portal to all federal, state and local government web resources and services.